Terminal Aerodrome Forecast
Issued by NWS Albany, NY

Home | Current Version | Previous Version | Text Only | Print | Product List | Glossary On
Versions: 1 2 3 4 5 6 7 8 9 10 11 12
000
FTUS41 KALY 271120
TAFPOU
TAF
KPOU 271120Z 2712/2812 32005KT P6SM BKN080
     FM271500 33010G18KT P6SM VCSH BKN050 BKN070
     FM280000 33006KT P6SM VCSH BKN040
     FM280300 33005KT P6SM BKN030=

USA.gov is the U.S. government's official web portal to all federal, state and local government web resources and services.